createdAt,value
2022-09-21T00:01:20.924Z,99.90
2022-09-21T00:03:51.771Z,99.90
2022-09-21T00:06:20.348Z,99.90
2022-09-21T00:08:48.367Z,99.90
2022-09-21T00:11:27.602Z,99.90
2022-09-21T00:13:56.286Z,99.90
2022-09-21T00:16:24.433Z,99.90
2022-09-21T00:18:52.053Z,99.90
2022-09-21T00:21:19.554Z,99.90
2022-09-21T00:23:46.787Z,99.90
2022-09-21T00:26:20.013Z,99.90
2022-09-21T00:28:47.933Z,99.90
2022-09-21T00:31:18.319Z,99.90
2022-09-21T00:33:45.478Z,99.90
2022-09-21T00:36:18.253Z,99.90
2022-09-21T00:38:49.287Z,99.90
2022-09-21T00:41:16.650Z,99.90
2022-09-21T00:43:47.815Z,99.90
2022-09-21T00:46:30.054Z,99.90
2022-09-21T00:48:58.673Z,99.90
2022-09-21T00:51:26.178Z,99.90
2022-09-21T00:54:00.587Z,99.90
2022-09-21T00:56:28.505Z,99.90
2022-09-21T00:58:55.830Z,99.90
2022-09-21T01:01:24.715Z,99.90
2022-09-21T01:03:53.530Z,99.90
2022-09-21T01:06:21.721Z,99.90
2022-09-21T01:08:53.820Z,99.90
2022-09-21T01:11:55.087Z,99.90
2022-09-21T01:15:17.720Z,99.90
2022-09-21T01:17:59.632Z,99.90
2022-09-21T01:21:05.226Z,99.90
2022-09-21T01:23:59.872Z,99.90
2022-09-21T01:27:05.993Z,99.90
2022-09-21T01:29:41.399Z,99.90
2022-09-21T01:32:17.062Z,99.90
2022-09-21T01:35:04.719Z,99.90
2022-09-21T01:37:56.321Z,99.90
2022-09-21T01:40:35.440Z,99.90
2022-09-21T01:43:05.703Z,99.90
2022-09-21T01:45:38.219Z,99.90
2022-09-21T01:48:06.147Z,99.90
2022-09-21T01:50:38.895Z,99.90
2022-09-21T01:53:16.599Z,99.90
2022-09-21T01:55:50.313Z,99.90
2022-09-21T01:58:29.849Z,99.90
2022-09-21T02:00:58.306Z,99.90
2022-09-21T02:03:36.657Z,99.90
2022-09-21T02:06:06.072Z,99.90
2022-09-21T02:08:34.003Z,99.90
2022-09-21T02:11:02.571Z,99.90
2022-09-21T02:13:34.397Z,99.90
2022-09-21T02:16:43.180Z,99.90
2022-09-21T02:19:31.807Z,99.90
2022-09-21T02:22:22.691Z,99.90
2022-09-21T02:25:14.222Z,99.90
2022-09-21T02:28:11.310Z,99.90
2022-09-21T02:30:41.678Z,99.90
2022-09-21T02:33:39.946Z,99.90
2022-09-21T02:36:46.450Z,99.90
2022-09-21T02:39:19.956Z,99.90
2022-09-21T02:42:07.705Z,99.90
2022-09-21T02:44:40.862Z,99.90
2022-09-21T02:47:38.514Z,99.90
2022-09-21T02:50:11.378Z,99.90
2022-09-21T02:52:41.621Z,99.90
2022-09-21T02:55:10.056Z,99.90
2022-09-21T02:57:38.384Z,99.90
2022-09-21T03:00:06.639Z,99.90
2022-09-21T03:02:41.804Z,99.90
2022-09-21T03:05:10.465Z,99.90
2022-09-21T03:07:37.717Z,99.90
2022-09-21T03:10:06.395Z,99.90
2022-09-21T03:12:33.448Z,99.90
2022-09-21T03:15:00.601Z,99.90
2022-09-21T03:17:27.937Z,99.90
2022-09-21T03:19:55.322Z,99.90
2022-09-21T03:22:23.128Z,99.90
2022-09-21T03:24:51.004Z,99.90
2022-09-21T03:27:20.748Z,99.90
2022-09-21T03:29:48.349Z,99.90
2022-09-21T03:32:15.626Z,99.90
2022-09-21T03:34:42.973Z,99.90
2022-09-21T03:37:10.698Z,99.90
2022-09-21T03:39:37.822Z,99.90
2022-09-21T03:42:05.242Z,99.90
2022-09-21T03:44:32.393Z,99.90
2022-09-21T03:46:59.439Z,99.90
2022-09-21T03:49:26.832Z,99.90
2022-09-21T03:51:53.881Z,99.90
2022-09-21T03:54:21.242Z,99.90
2022-09-21T03:56:48.224Z,99.90
2022-09-21T03:59:15.457Z,99.90
2022-09-21T04:01:42.711Z,99.90
2022-09-21T04:04:10.403Z,99.90
2022-09-21T04:06:37.467Z,99.90
2022-09-21T04:09:04.552Z,99.90
2022-09-21T04:11:33.451Z,99.90
2022-09-21T04:14:00.628Z,99.90
2022-09-21T04:16:28.398Z,99.90
2022-09-21T04:18:55.530Z,99.90
2022-09-21T04:21:22.601Z,99.90
2022-09-21T04:23:50.021Z,99.90
2022-09-21T04:26:31.801Z,99.90
2022-09-21T04:28:59.793Z,99.90
2022-09-21T04:31:28.098Z,99.90
2022-09-21T04:33:57.241Z,99.90
2022-09-21T04:36:26.105Z,99.90
2022-09-21T04:38:53.136Z,99.90
2022-09-21T04:41:20.388Z,99.90
2022-09-21T04:43:48.730Z,99.90
2022-09-21T04:46:18.751Z,99.90
2022-09-21T04:48:46.760Z,99.90
2022-09-21T04:51:15.166Z,99.90
2022-09-21T04:53:43.124Z,99.90
2022-09-21T04:56:13.071Z,99.90
2022-09-21T04:58:40.296Z,99.90
2022-09-21T05:01:07.880Z,99.90
2022-09-21T05:03:35.336Z,99.90
2022-09-21T05:06:02.705Z,99.90
2022-09-21T05:08:48.341Z,99.90
2022-09-21T05:11:21.101Z,99.90
2022-09-21T05:13:48.629Z,99.90
2022-09-21T05:16:17.167Z,99.90
2022-09-21T05:18:44.984Z,99.90
2022-09-21T05:21:13.941Z,99.90
2022-09-21T05:23:41.394Z,99.90
2022-09-21T05:26:08.445Z,99.90
2022-09-21T05:28:39.911Z,99.90
2022-09-21T05:31:32.891Z,99.90
2022-09-21T05:34:36.179Z,99.90
2022-09-21T05:37:54.293Z,99.90
2022-09-21T05:40:21.977Z,99.90
2022-09-21T05:42:50.636Z,99.90
2022-09-21T05:45:18.950Z,99.90
2022-09-21T05:48:08.349Z,99.90
2022-09-21T05:51:04.573Z,99.90
2022-09-21T05:53:43.714Z,99.90
2022-09-21T05:56:43.670Z,99.90
2022-09-21T06:00:11.688Z,99.90
2022-09-21T06:03:38.896Z,99.90
2022-09-21T06:06:07.922Z,99.90
2022-09-21T06:08:35.210Z,99.90
2022-09-21T06:11:02.388Z,99.90
2022-09-21T06:13:29.625Z,99.90
2022-09-21T06:15:57.191Z,99.90
2022-09-21T06:18:24.482Z,99.90
2022-09-21T06:20:51.447Z,99.90
2022-09-21T06:23:18.718Z,99.90
2022-09-21T06:25:53.648Z,99.90
2022-09-21T06:28:24.738Z,99.90
2022-09-21T06:30:53.311Z,99.90
2022-09-21T06:33:23.407Z,99.90
2022-09-21T06:35:55.711Z,99.90
2022-09-21T06:38:23.759Z,99.90
2022-09-21T06:40:51.587Z,99.90
2022-09-21T06:43:18.928Z,99.90
2022-09-21T06:45:57.202Z,99.90
2022-09-21T06:48:24.808Z,99.90
2022-09-21T06:50:52.178Z,99.90
2022-09-21T06:53:20.041Z,99.90
2022-09-21T06:55:47.067Z,99.90
2022-09-21T06:58:14.107Z,99.90
2022-09-21T07:00:41.141Z,99.90
2022-09-21T07:03:12.782Z,99.90
2022-09-21T07:05:40.232Z,99.90
2022-09-21T07:10:05.023Z,99.90
2022-09-21T07:10:57.509Z,99.90
2022-09-21T07:13:24.633Z,99.90
2022-09-21T07:15:53.421Z,99.90
2022-09-21T07:18:21.325Z,99.90
2022-09-21T07:20:49.284Z,99.90
2022-09-21T07:23:18.718Z,99.90
2022-09-21T07:25:50.653Z,99.90
2022-09-21T07:28:17.678Z,99.90
2022-09-21T07:30:44.756Z,99.90
2022-09-21T07:33:11.947Z,99.90
2022-09-21T07:35:39.069Z,99.90
2022-09-21T07:38:07.723Z,99.90
2022-09-21T07:40:35.859Z,99.90
2022-09-21T07:43:03.075Z,99.70
2022-09-21T07:45:31.215Z,99.90
2022-09-21T07:48:05.189Z,99.80
2022-09-21T07:50:34.217Z,99.90
2022-09-21T07:53:02.450Z,99.90
2022-09-21T07:55:29.844Z,99.90
2022-09-21T07:58:15.602Z,99.90
2022-09-21T08:00:42.844Z,99.90
2022-09-21T08:03:09.858Z,98.10
2022-09-21T08:05:36.875Z,97.10
2022-09-21T08:08:04.148Z,98.30
2022-09-21T08:10:32.122Z,97.30
2022-09-21T13:45:49.415Z,93.80
2022-09-21T13:48:27.349Z,18.80
2022-09-21T13:50:58.069Z,18.70
2022-09-21T13:53:32.552Z,19.90
2022-09-21T13:56:12.049Z,16.60
2022-09-21T13:58:46.539Z,17.90
2022-09-21T14:01:45.728Z,17.50
2022-09-21T14:04:27.616Z,13.60
2022-09-21T14:06:57.188Z,15.00
2022-09-21T14:09:35.055Z,16.90
2022-09-21T14:12:06.477Z,15.60
2022-09-21T14:14:41.577Z,15.30
2022-09-21T14:17:35.294Z,13.70
2022-09-21T14:20:03.849Z,14.40
2022-09-21T14:22:37.851Z,15.50
2022-09-21T14:25:27.295Z,16.20
2022-09-21T14:27:58.487Z,15.90
2022-09-21T14:30:29.319Z,17.40
2022-09-21T14:33:26.414Z,19.00
2022-09-21T14:35:55.307Z,16.30
2022-09-21T14:38:29.202Z,15.20
2022-09-21T14:41:07.682Z,15.50
2022-09-21T14:43:37.531Z,14.80
2022-09-21T14:46:46.532Z,13.00
2022-09-21T14:49:50.752Z,16.90
2022-09-21T14:52:57.080Z,23.30
2022-09-21T14:56:00.430Z,22.80
2022-09-21T14:58:57.312Z,16.90
2022-09-21T15:01:54.240Z,14.40
2022-09-21T15:04:45.692Z,17.70
2022-09-21T15:07:58.193Z,18.10
2022-09-21T15:10:56.630Z,16.30
2022-09-21T15:14:05.305Z,15.60
2022-09-21T15:16:47.395Z,16.80
2022-09-21T15:19:27.248Z,15.30
2022-09-21T15:22:22.485Z,19.30
2022-09-21T15:25:03.992Z,18.30
2022-09-21T15:27:33.754Z,15.80
2022-09-21T15:30:03.804Z,16.90
2022-09-21T15:32:40.553Z,17.90
2022-09-21T15:37:57.151Z,23.00
2022-09-21T15:40:31.085Z,26.60
2022-09-21T15:43:19.623Z,24.80
2022-09-21T15:46:05.028Z,21.70
2022-09-21T15:48:42.228Z,24.00
2022-09-21T15:51:19.167Z,18.70
2022-09-21T15:53:52.366Z,18.80
2022-09-21T15:56:23.532Z,18.40
2022-09-21T15:58:50.908Z,18.80
2022-09-21T16:01:23.478Z,18.30
2022-09-21T16:04:04.883Z,19.20
2022-09-21T16:06:41.729Z,19.50
2022-09-21T16:09:47.184Z,20.10
2022-09-21T16:12:46.562Z,19.40
2022-09-21T16:15:39.900Z,19.50
2022-09-21T16:18:07.197Z,19.70
2022-09-21T16:20:44.101Z,20.60
2022-09-21T16:23:30.585Z,21.40
2022-09-21T16:26:00.851Z,21.00
2022-09-21T16:28:40.036Z,21.00
2022-09-21T16:31:34.462Z,21.30
2022-09-21T16:34:17.865Z,21.50
2022-09-21T16:36:45.736Z,21.90
2022-09-21T16:39:15.465Z,21.90
2022-09-21T16:42:00.243Z,22.30
2022-09-21T16:44:31.572Z,23.30
2022-09-21T16:47:01.766Z,23.70
2022-09-21T16:49:35.211Z,23.80
2022-09-21T16:52:03.285Z,24.60
2022-09-21T16:54:30.766Z,25.70
2022-09-21T16:57:00.209Z,25.90
2022-09-21T16:59:27.738Z,30.00
2022-09-21T17:01:57.119Z,32.80
2022-09-21T17:04:28.197Z,36.30
2022-09-21T17:06:55.925Z,38.50
2022-09-21T17:09:31.622Z,41.30
2022-09-21T17:12:01.387Z,43.70
2022-09-21T17:14:35.628Z,46.90
2022-09-21T17:17:12.969Z,48.00
2022-09-21T17:19:42.186Z,48.90
2022-09-21T17:22:17.642Z,50.70
2022-09-21T17:24:50.735Z,51.20
2022-09-21T17:27:21.478Z,51.80
2022-09-21T17:29:50.029Z,52.50
2022-09-21T17:32:22.879Z,53.30
2022-09-21T17:35:01.770Z,54.10
2022-09-21T17:37:29.398Z,55.80
2022-09-21T17:39:56.432Z,56.20
2022-09-21T17:42:26.118Z,57.10
2022-09-21T17:45:29.367Z,55.90
2022-09-21T17:47:56.941Z,54.30
2022-09-21T17:50:27.038Z,55.30
2022-09-21T17:53:14.703Z,54.70
2022-09-21T17:55:53.032Z,54.90
2022-09-21T17:58:48.801Z,54.90
2022-09-21T18:01:42.380Z,55.80
2022-09-21T18:04:14.037Z,57.30
2022-09-21T18:06:41.455Z,57.00
2022-09-21T18:09:12.766Z,57.00
2022-09-21T18:12:21.632Z,56.70
2022-09-21T18:15:47.947Z,56.40
2022-09-21T18:18:42.833Z,56.40
2022-09-21T18:21:20.042Z,56.60
2022-09-21T18:24:21.092Z,56.50
2022-09-21T18:26:49.367Z,56.00
2022-09-21T18:29:39.421Z,56.00
2022-09-21T18:32:36.340Z,57.30
2022-09-21T18:35:47.192Z,56.60
2022-09-21T18:38:39.066Z,57.20
2022-09-21T18:42:01.194Z,57.20
2022-09-21T18:44:40.192Z,57.60
2022-09-21T18:47:58.899Z,57.80
2022-09-21T18:51:02.759Z,58.10
2022-09-21T18:53:45.299Z,57.60
2022-09-21T18:56:13.353Z,57.40
2022-09-21T18:58:42.834Z,58.10
2022-09-21T19:01:14.115Z,58.00
2022-09-21T19:03:43.969Z,58.70
2022-09-21T19:06:46.813Z,58.80
2022-09-21T19:09:39.510Z,58.70
2022-09-21T19:12:17.978Z,58.40
2022-09-21T19:15:12.274Z,58.80
2022-09-21T19:18:15.310Z,59.40
2022-09-21T19:21:07.709Z,60.30
2022-09-21T19:24:13.424Z,60.40
2022-09-21T19:27:09.404Z,61.10
2022-09-21T19:29:59.632Z,62.40
2022-09-21T19:33:00.675Z,63.10
2022-09-21T19:35:33.150Z,63.00
2022-09-21T19:38:03.497Z,62.30
2022-09-21T19:40:34.039Z,63.40
2022-09-21T19:43:42.441Z,63.40
2022-09-21T19:46:55.828Z,62.90
2022-09-21T19:49:27.426Z,64.10
2022-09-21T19:51:56.499Z,64.90
2022-09-21T19:54:44.080Z,65.90
2022-09-21T19:57:34.954Z,65.90
2022-09-21T20:00:03.495Z,66.10
2022-09-21T20:02:57.635Z,66.80
2022-09-21T20:05:59.175Z,67.30
2022-09-21T20:08:54.664Z,68.60
2022-09-21T20:11:45.905Z,69.50
2022-09-21T20:14:57.346Z,69.70
2022-09-21T20:17:50.230Z,70.70
2022-09-21T20:20:24.050Z,72.00
2022-09-21T20:22:51.438Z,73.20
2022-09-21T20:25:37.855Z,72.10
2022-09-21T20:28:05.555Z,73.30
2022-09-21T20:30:34.684Z,74.10
2022-09-21T20:33:07.755Z,75.70
2022-09-21T20:35:35.164Z,77.50
2022-09-21T20:38:03.225Z,80.40
2022-09-21T20:40:32.505Z,81.60
2022-09-21T20:43:03.543Z,80.80
2022-09-21T20:45:30.581Z,78.60
2022-09-21T20:48:13.307Z,79.20
2022-09-21T20:50:46.318Z,81.50
2022-09-21T20:53:13.554Z,81.30
2022-09-21T20:55:41.443Z,84.40
2022-09-21T20:58:12.176Z,86.40
2022-09-21T21:00:39.566Z,88.20
2022-09-21T21:03:06.583Z,88.80
2022-09-21T21:05:33.582Z,89.30
2022-09-21T21:08:00.701Z,88.80
2022-09-21T21:10:27.748Z,89.30
2022-09-21T21:12:55.177Z,87.10
2022-09-21T21:15:22.346Z,87.10
2022-09-21T21:17:49.376Z,88.00
2022-09-21T21:20:17.045Z,87.30
2022-09-21T21:22:45.205Z,87.00
2022-09-21T21:25:12.286Z,87.10
2022-09-21T21:27:39.389Z,86.40
2022-09-21T21:30:07.854Z,88.30
2022-09-21T21:32:35.099Z,87.90
2022-09-21T21:35:02.539Z,89.10
2022-09-21T21:37:29.947Z,87.20
2022-09-21T21:39:57.186Z,89.20
2022-09-21T21:42:29.495Z,90.30
2022-09-21T21:44:56.777Z,90.80
2022-09-21T21:47:40.496Z,91.00
2022-09-21T21:50:09.861Z,91.70
2022-09-21T21:52:37.346Z,93.30
2022-09-21T21:55:05.512Z,94.20
2022-09-21T21:57:33.397Z,95.90
2022-09-21T22:00:00.509Z,96.50
2022-09-21T22:02:29.494Z,96.90
2022-09-21T22:04:56.609Z,97.60
2022-09-21T22:07:23.652Z,96.40
2022-09-21T22:09:50.657Z,96.90
2022-09-21T22:12:17.671Z,95.90
2022-09-21T22:14:46.519Z,96.10
2022-09-21T22:17:13.811Z,97.10
2022-09-21T22:19:40.860Z,97.00
2022-09-21T22:22:07.972Z,96.30
2022-09-21T22:24:34.982Z,96.40
2022-09-21T22:27:02.087Z,96.90
2022-09-21T22:29:29.073Z,97.80
2022-09-21T22:31:56.464Z,98.50
2022-09-21T22:34:23.730Z,99.50
2022-09-21T22:36:50.952Z,99.90
2022-09-21T22:39:18.241Z,99.90
2022-09-21T22:41:45.265Z,99.90
2022-09-21T22:44:12.565Z,99.90
2022-09-21T22:46:39.713Z,99.90
2022-09-21T22:49:06.818Z,99.90
2022-09-21T22:51:34.511Z,99.90
2022-09-21T22:54:01.848Z,99.90
2022-09-21T22:56:30.875Z,99.90
2022-09-21T22:59:02.015Z,99.90
2022-09-21T23:01:35.020Z,99.90
2022-09-21T23:04:05.292Z,99.90
2022-09-21T23:06:34.190Z,99.90
2022-09-21T23:09:03.573Z,99.90
2022-09-21T23:11:39.477Z,99.90
2022-09-21T23:14:06.569Z,99.90
2022-09-21T23:16:33.731Z,99.90
2022-09-21T23:19:00.925Z,99.90
2022-09-21T23:21:29.822Z,99.90
2022-09-21T23:24:00.187Z,99.90
2022-09-21T23:26:29.620Z,99.90
2022-09-21T23:28:59.178Z,99.90
2022-09-21T23:31:27.048Z,99.90
2022-09-21T23:33:55.621Z,99.90
2022-09-21T23:36:26.206Z,99.90
2022-09-21T23:38:53.679Z,99.90
2022-09-21T23:41:23.335Z,99.90
2022-09-21T23:43:50.896Z,99.90
2022-09-21T23:46:21.063Z,99.90
2022-09-21T23:48:49.210Z,99.90
2022-09-21T23:51:16.679Z,99.90
2022-09-21T23:53:44.071Z,99.90
2022-09-21T23:56:17.875Z,99.90
2022-09-21T23:58:45.177Z,99.90
